Time;durP1;ratioP1;P1;durP2;ratioP2;P2;SDS_P1;SDS_P2;PMS_P1;PMS_P2;Temp;Humidity;BMP_temperature;BMP_pressure;BME280_temperature;BME280_humidity;BME280_pressure;Samples;Min_cycle;Max_cycle;Signal;HPM_P1;HPM_P2
2023/01/12 00:00:09;;;;;;;6.65;1.73;;;;;;;5.78;95.20;98365.06;4237386;27;20274;-73
2023/01/12 00:02:12;;;;;;;5.95;1.60;;;;;;;5.91;94.79;98369.41;4236481;27;20459;-73
2023/01/12 00:04:14;;;;;;;5.63;1.70;;;;;;;5.95;93.68;98366.75;4230425;27;20122;-73
2023/01/12 00:06:15;;;;;;;7.23;1.60;;;;;;;5.92;93.96;98368.25;4236800;27;20431;-74
2023/01/12 00:08:15;;;;;;;4.57;1.60;;;;;;;5.93;93.99;98360.81;4234154;27;20032;-73
2023/01/12 00:10:16;;;;;;;15.50;2.17;;;;;;;5.89;94.52;98364.22;4222057;27;20353;-74
2023/01/12 00:12:16;;;;;;;7.32;2.33;;;;;;;5.90;94.14;98365.03;4221849;27;20610;-73
2023/01/12 00:14:16;;;;;;;8.90;2.15;;;;;;;6.00;93.69;98372.00;4234463;27;20043;-73
2023/01/12 00:16:39;;;;;;;7.65;1.63;;;;;;;6.04;93.33;98378.38;4221476;27;20398;-73
2023/01/12 00:18:40;;;;;;;7.22;1.77;;;;;;;6.07;93.15;98366.69;4224732;27;20043;-73
2023/01/12 00:20:46;;;;;;;7.93;1.73;;;;;;;6.05;93.21;98361.56;4236120;27;20044;-73
2023/01/12 00:22:48;;;;;;;5.88;1.35;;;;;;;6.02;93.28;98342.22;4233472;27;20086;-73
2023/01/12 00:24:48;;;;;;;8.80;2.03;;;;;;;5.93;93.59;98345.13;4221389;27;20040;-73
2023/01/12 00:26:49;;;;;;;7.22;1.80;;;;;;;5.87;93.87;98333.56;4230124;27;20049;-73
2023/01/12 00:28:49;;;;;;;8.63;1.80;;;;;;;5.82;93.78;98346.75;4236170;27;20050;-73
2023/01/12 00:30:49;;;;;;;2.83;1.20;;;;;;;5.77;93.88;98339.56;4233964;27;20163;-73
2023/01/12 00:32:50;;;;;;;5.15;1.67;;;;;;;5.78;94.24;98330.16;4221895;27;20067;-74
2023/01/12 00:34:50;;;;;;;5.78;1.27;;;;;;;5.76;93.29;98326.19;4236441;27;20479;-73
2023/01/12 00:36:51;;;;;;;4.70;1.67;;;;;;;5.74;93.98;98333.97;4232644;27;20043;-73
2023/01/12 00:38:51;;;;;;;9.52;1.92;;;;;;;5.71;93.86;98329.16;4227705;27;20127;-74
2023/01/12 00:40:51;;;;;;;8.00;2.55;;;;;;;5.74;93.78;98318.31;4221532;27;20058;-74
2023/01/12 00:45:23;;;;;;;4.50;1.70;;;;;;;5.75;93.50;98297.16;4222362;27;20062;-74
2023/01/12 00:47:24;;;;;;;6.47;1.67;;;;;;;5.72;93.29;98298.66;4220924;27;20301;-73
2023/01/12 00:49:24;;;;;;;4.00;1.40;;;;;;;5.78;93.28;98286.25;4221081;27;20102;-73
2023/01/12 00:51:24;;;;;;;5.50;1.70;;;;;;;5.72;93.70;98295.09;4226877;27;20040;-73
2023/01/12 00:53:25;;;;;;;5.93;1.83;;;;;;;5.69;94.50;98295.78;4228259;27;20100;-73
2023/01/12 00:55:25;;;;;;;6.72;2.03;;;;;;;5.73;93.10;98310.44;4220350;27;20047;-73
2023/01/12 00:57:26;;;;;;;5.22;1.73;;;;;;;5.75;93.11;98305.38;4221171;27;20039;-73
2023/01/12 00:59:28;;;;;;;4.95;1.52;;;;;;;5.74;93.12;98306.53;4220693;27;20369;-73
2023/01/12 01:01:29;;;;;;;4.15;1.20;;;;;;;5.69;94.36;98291.09;4220831;27;20040;-74
2023/01/12 01:03:29;;;;;;;6.45;1.70;;;;;;;5.72;94.04;98297.84;4219076;27;20042;-73
2023/01/12 01:05:30;;;;;;;5.47;1.60;;;;;;;5.69;94.42;98299.34;4221165;27;20047;-73
2023/01/12 01:07:30;;;;;;;12.75;2.92;;;;;;;5.68;93.75;98297.75;4220857;27;20434;-73
2023/01/12 01:09:30;;;;;;;7.82;1.83;;;;;;;5.70;93.97;98308.38;4225372;27;20050;-73
2023/01/12 01:11:31;;;;;;;6.95;1.88;;;;;;;5.76;93.70;98296.78;4220681;27;20082;-74
2023/01/12 01:13:31;;;;;;;5.63;1.98;;;;;;;5.78;93.65;98299.97;4226616;27;20546;-73
2023/01/12 01:15:32;;;;;;;6.40;1.73;;;;;;;5.83;92.55;98297.00;4221322;27;20044;-74
2023/01/12 01:17:32;;;;;;;7.45;2.03;;;;;;;5.89;92.53;98289.31;4225157;27;20374;-73
2023/01/12 01:19:33;;;;;;;3.85;1.40;;;;;;;5.96;93.71;98289.53;4235881;27;20460;-73
2023/01/12 01:21:33;;;;;;;5.22;1.65;;;;;;;5.94;93.30;98269.84;4229813;27;20734;-73
2023/01/12 01:23:34;;;;;;;3.28;2.33;;;;;;;5.96;93.06;98289.53;4224450;27;20044;-73
2023/01/12 01:25:35;;;;;;;6.43;1.60;;;;;;;5.96;93.07;98295.03;4230733;27;20058;-73
2023/01/12 01:27:35;;;;;;;9.77;1.73;;;;;;;5.94;93.43;98289.06;4221964;27;20075;-73
2023/01/12 01:29:37;;;;;;;6.45;1.70;;;;;;;5.98;92.81;98295.47;4223042;27;20096;-73
2023/01/12 01:31:37;;;;;;;10.70;2.25;;;;;;;5.98;93.23;98297.41;4226675;27;20403;-73
2023/01/12 01:33:39;;;;;;;2.78;1.77;;;;;;;6.04;92.76;98287.72;4226065;27;20047;-73
2023/01/12 01:35:39;;;;;;;8.00;2.13;;;;;;;6.03;92.57;98289.69;4235703;27;20047;-73
2023/01/12 01:37:39;;;;;;;3.65;1.95;;;;;;;6.05;92.93;98297.59;4231277;27;20046;-73
2023/01/12 01:39:40;;;;;;;8.02;2.28;;;;;;;6.07;92.58;98284.31;4235954;27;20479;-73
2023/01/12 01:41:40;;;;;;;5.97;1.58;;;;;;;6.11;92.03;98285.19;4222959;27;20364;-73
2023/01/12 01:43:54;;;;;;;3.10;1.25;;;;;;;6.06;92.58;98285.47;4219582;27;20043;-73
2023/01/12 01:46:05;;;;;;;4.57;1.30;;;;;;;6.03;92.64;98291.63;4219893;27;20460;-73
2023/01/12 01:48:12;;;;;;;6.60;1.67;;;;;;;6.04;93.04;98282.25;4220038;27;20035;-74
2023/01/12 01:50:33;;;;;;;8.68;2.05;;;;;;;6.06;93.16;98280.75;4231948;27;20036;-73
2023/01/12 01:52:42;;;;;;;3.50;1.48;;;;;;;6.04;92.91;98266.59;4227437;27;20635;-73
2023/01/12 01:54:54;;;;;;;2.88;1.40;;;;;;;5.95;93.75;98262.38;4230030;27;20043;-73
2023/01/12 01:56:56;;;;;;;5.68;1.80;;;;;;;5.95;94.06;98259.66;4223254;27;20483;-73
2023/01/12 01:59:04;;;;;;;3.65;1.30;;;;;;;5.93;94.01;98260.00;4229531;27;20143;-73
2023/01/12 02:01:05;;;;;;;2.67;1.48;;;;;;;5.90;94.00;98268.94;4230089;27;20035;-73
2023/01/12 02:03:07;;;;;;;7.80;1.75;;;;;;;5.88;94.59;98269.28;4222330;27;20081;-73
2023/01/12 02:05:08;;;;;;;3.95;1.67;;;;;;;5.94;93.94;98269.03;4219715;27;20530;-73
2023/01/12 02:07:10;;;;;;;4.70;1.70;;;;;;;6.00;93.71;98262.94;4232763;27;20519;-73
2023/01/12 02:09:26;;;;;;;7.00;1.73;;;;;;;6.02;93.85;98260.63;4233842;27;20031;-73
2023/01/12 02:16:21;;;;;;;4.80;1.45;;;;;;;5.96;94.50;98267.56;4222460;27;20046;-73
2023/01/12 02:19:03;;;;;;;5.38;1.55;;;;;;;5.99;94.93;98246.81;4222479;27;20399;-73
2023/01/12 02:21:28;;;;;;;6.25;1.70;;;;;;;6.05;94.84;98254.44;4225072;27;20082;-73
2023/01/12 02:23:50;;;;;;;3.70;1.30;;;;;;;6.03;94.82;98244.94;4231528;27;20073;-73
2023/01/12 02:26:08;;;;;;;6.85;1.70;;;;;;;6.07;95.20;98251.34;4219632;27;20063;-73
2023/01/12 02:28:22;;;;;;;3.33;1.42;;;;;;;6.03;95.32;98243.00;4232464;27;20087;-73
2023/01/12 02:30:56;;;;;;;8.55;1.60;;;;;;;6.04;96.07;98243.78;4235307;27;20045;-73
2023/01/12 02:33:08;;;;;;;;;;;;;;;5.98;95.95;98237.78;4230849;27;20559;-73
2023/01/12 02:35:14;;;;;;;6.00;1.50;;;;;;;5.94;96.25;98245.13;4219467;27;20240;-73
2023/01/12 02:37:26;;;;;;;6.07;1.83;;;;;;;5.92;97.24;98255.66;4219404;27;20046;-73
2023/01/12 02:39:36;;;;;;;6.22;2.15;;;;;;;5.89;98.06;98248.13;4219511;27;20138;-73
2023/01/12 02:44:35;;;;;;;6.05;1.58;;;;;;;5.92;98.16;98247.44;4220366;27;20127;-73
2023/01/12 02:46:38;;;;;;;6.97;1.88;;;;;;;5.86;98.86;98240.56;4221689;27;20040;-73
2023/01/12 02:48:51;;;;;;;3.58;1.88;;;;;;;5.91;99.10;98252.13;4219917;27;20135;-73
2023/01/12 02:51:04;;;;;;;5.72;2.20;;;;;;;5.87;99.33;98229.22;4222162;27;20043;-73
2023/01/12 02:53:37;;;;;;;8.88;1.60;;;;;;;5.90;100.00;98227.75;4220210;27;20039;-73
2023/01/12 02:55:39;;;;;;;;;;;;;;;5.82;100.00;98232.25;4221539;27;20039;-73
2023/01/12 02:57:41;;;;;;;5.47;1.63;;;;;;;5.79;100.00;98229.38;4222680;27;20018;-73
2023/01/12 02:59:44;;;;;;;9.10;1.80;;;;;;;5.80;100.00;98237.31;4224494;27;20542;-73
2023/01/12 03:01:49;;;;;;;6.82;2.10;;;;;;;5.79;100.00;98226.66;4223788;27;20035;-73
2023/01/12 03:03:51;;;;;;;9.75;2.10;;;;;;;5.83;100.00;98219.31;4221274;27;20425;-73
2023/01/12 03:05:58;;;;;;;3.63;2.10;;;;;;;5.81;100.00;98219.66;4219094;27;20845;-73
2023/01/12 03:08:03;;;;;;;5.43;1.67;;;;;;;5.84;100.00;98218.97;4218919;27;20134;-73
2023/01/12 03:10:16;;;;;;;3.75;1.30;;;;;;;5.75;100.00;98210.09;4218806;27;20042;-74
2023/01/12 03:12:32;;;;;;;5.95;1.58;;;;;;;5.78;100.00;98214.88;4219395;27;20031;-73
2023/01/12 03:14:35;;;;;;;6.20;1.38;;;;;;;5.75;100.00;98206.56;4227680;27;20483;-74
2023/01/12 03:16:39;;;;;;;4.75;2.00;;;;;;;5.78;100.00;98212.13;4221171;27;20048;-73
2023/01/12 03:18:50;;;;;;;6.43;2.50;;;;;;;5.77;100.00;98209.72;4219158;27;20051;-74
2023/01/12 03:20:58;;;;;;;5.22;2.08;;;;;;;5.79;100.00;98223.91;4232409;27;20039;-73
2023/01/12 03:23:05;;;;;;;4.80;1.55;;;;;;;5.81;100.00;98208.69;4221232;27;20051;-73
2023/01/12 03:25:12;;;;;;;3.78;1.50;;;;;;;5.81;100.00;98207.91;4219020;27;20459;-73
2023/01/12 03:27:21;;;;;;;3.65;1.52;;;;;;;5.80;100.00;98209.06;4223764;27;20470;-73
2023/01/12 03:29:28;;;;;;;5.10;1.73;;;;;;;5.82;100.00;98217.72;4219108;27;20046;-74
2023/01/12 03:31:29;;;;;;;4.85;1.40;;;;;;;5.84;100.00;98207.97;4219515;27;20028;-73
2023/01/12 03:33:29;;;;;;;4.38;1.90;;;;;;;5.81;100.00;98202.41;4230234;27;20130;-73
2023/01/12 03:35:37;;;;;;;4.32;1.40;;;;;;;5.85;100.00;98203.28;4237188;27;20071;-73
2023/01/12 03:37:57;;;;;;;6.85;1.67;;;;;;;5.80;100.00;98218.09;4238629;27;20039;-73
2023/01/12 03:40:26;;;;;;;8.88;1.83;;;;;;;5.76;100.00;98205.41;4237470;27;20446;-73
2023/01/12 03:43:02;;;;;;;8.07;1.90;;;;;;;5.75;100.00;98201.06;4202583;27;20047;-73
2023/01/12 03:45:12;;;;;;;5.43;1.40;;;;;;;5.82;100.00;98220.47;4231840;27;20039;-73
2023/01/12 03:47:23;;;;;;;5.28;1.88;;;;;;;5.78;100.00;98214.06;4222629;27;20051;-73
2023/01/12 03:49:28;;;;;;;3.75;1.55;;;;;;;5.75;100.00;98209.28;4235816;27;20039;-73
2023/01/12 03:51:33;;;;;;;3.33;1.95;;;;;;;5.75;100.00;98215.59;4236695;27;20050;-74
2023/01/12 03:53:36;;;;;;;5.38;1.40;;;;;;;5.74;100.00;98207.72;4221404;27;20071;-74
2023/01/12 03:55:38;;;;;;;5.25;1.73;;;;;;;5.79;100.00;98211.00;4221648;27;20039;-74
2023/01/12 03:57:39;;;;;;;10.20;2.10;;;;;;;5.84;100.00;98204.44;4222212;28;20504;-74
2023/01/12 03:59:40;;;;;;;6.43;1.60;;;;;;;5.81;100.00;98216.13;4221927;27;20139;-73
2023/01/12 04:01:42;;;;;;;4.18;1.50;;;;;;;5.80;100.00;98220.03;4224211;27;20129;-73
2023/01/12 04:03:42;;;;;;;2.95;1.58;;;;;;;5.75;100.00;98218.34;4220945;27;20066;-73
2023/01/12 04:05:44;;;;;;;9.25;2.20;;;;;;;5.83;100.00;98211.06;4221892;27;20039;-73
2023/01/12 04:07:45;;;;;;;8.20;1.65;;;;;;;5.84;100.00;98212.66;4221996;27;20314;-73
2023/01/12 04:09:45;;;;;;;4.88;2.00;;;;;;;5.83;100.00;98195.41;4236729;27;20039;-73
2023/01/12 04:14:04;;;;;;;4.50;2.38;;;;;;;5.76;100.00;98186.97;4227732;27;20380;-73
2023/01/12 04:16:05;;;;;;;4.85;1.50;;;;;;;5.74;100.00;98205.75;4228136;27;20445;-74
2023/01/12 04:18:05;;;;;;;2.70;1.70;;;;;;;5.72;100.00;98194.34;4221823;27;20076;-73
2023/01/12 04:20:08;;;;;;;3.88;1.70;;;;;;;5.70;100.00;98188.38;4221351;27;20392;-73
2023/01/12 04:24:30;;;;;;;1.58;1.40;;;;;;;5.72;100.00;98186.09;4221286;27;19927;-73
2023/01/12 04:26:30;;;;;;;5.13;1.52;;;;;;;5.71;100.00;98181.78;4225726;27;20039;-74
2023/01/12 04:28:31;;;;;;;3.78;1.50;;;;;;;5.70;100.00;98176.59;4225105;27;20219;-73
2023/01/12 04:30:32;;;;;;;5.10;1.63;;;;;;;5.72;100.00;98168.84;4230106;27;20035;-73
2023/01/12 04:32:33;;;;;;;2.63;1.40;;;;;;;5.76;100.00;98170.50;4224206;27;20761;-73
2023/01/12 04:34:33;;;;;;;2.85;1.30;;;;;;;5.81;100.00;98174.94;4221722;27;20269;-73
2023/01/12 04:36:33;;;;;;;6.82;1.35;;;;;;;5.83;100.00;98167.16;4222158;27;20122;-74
2023/01/12 04:38:34;;;;;;;4.28;1.50;;;;;;;5.80;100.00;98171.41;4222587;27;20433;-73
2023/01/12 04:40:35;;;;;;;4.60;1.63;;;;;;;5.78;100.00;98170.94;4231163;27;20044;-74
2023/01/12 04:44:55;;;;;;;6.60;1.60;;;;;;;5.78;100.00;98170.16;4230973;27;20058;-73
2023/01/12 04:46:55;;;;;;;6.82;1.58;;;;;;;5.89;99.94;98168.50;4226704;27;20047;-73
2023/01/12 04:48:56;;;;;;;4.57;1.40;;;;;;;5.87;100.00;98170.75;4231176;27;20035;-73
2023/01/12 04:50:58;;;;;;;3.58;1.25;;;;;;;5.94;99.88;98176.47;4221060;27;20032;-73
2023/01/12 04:53:01;;;;;;;4.22;1.65;;;;;;;5.87;99.69;98162.53;4231505;27;20039;-74
2023/01/12 04:55:03;;;;;;;4.35;1.88;;;;;;;5.85;100.00;98156.59;4222808;27;20416;-73
2023/01/12 04:57:03;;;;;;;3.42;1.35;;;;;;;6.00;99.34;98155.84;4220503;27;20383;-73
2023/01/12 04:59:05;;;;;;;3.53;1.60;;;;;;;5.99;99.59;98158.94;4220730;27;20150;-73
2023/01/12 05:01:16;;;;;;;2.80;1.30;;;;;;;5.97;99.02;98159.31;4221063;27;20109;-74
2023/01/12 05:03:17;;;;;;;4.55;1.48;;;;;;;5.94;99.85;98150.97;4229469;27;20086;-73
2023/01/12 05:05:17;;;;;;;3.78;1.33;;;;;;;5.89;99.60;98161.03;4231984;27;20818;-73
2023/01/12 05:07:17;;;;;;;4.00;1.63;;;;;;;5.85;100.00;98151.13;4220814;27;20369;-73
2023/01/12 05:11:37;;;;;;;3.63;1.42;;;;;;;5.90;100.00;98159.09;4227055;27;20146;-73
2023/01/12 05:13:37;;;;;;;3.65;1.50;;;;;;;5.85;100.00;98143.66;4222607;27;20547;-73
2023/01/12 05:15:37;;;;;;;8.02;2.03;;;;;;;5.94;100.00;98151.75;4225666;27;20158;-73
2023/01/12 05:17:38;;;;;;;4.43;1.73;;;;;;;5.94;100.00;98137.22;4224884;27;20043;-73
2023/01/12 05:19:38;;;;;;;3.95;1.58;;;;;;;5.91;99.83;98141.50;4226159;27;20183;-73
2023/01/12 05:21:38;;;;;;;5.43;1.60;;;;;;;5.90;100.00;98154.44;4223010;27;20156;-73
2023/01/12 05:23:39;;;;;;;4.43;1.77;;;;;;;5.94;100.00;98154.50;4226307;27;20493;-73
2023/01/12 05:25:39;;;;;;;6.78;2.55;;;;;;;6.01;100.00;98149.19;4226599;27;20043;-73
2023/01/12 05:27:40;;;;;;;4.13;1.40;;;;;;;6.03;99.62;98151.56;4224093;27;20529;-73
2023/01/12 05:29:40;;;;;;;4.85;2.00;;;;;;;6.06;99.79;98148.13;4224597;27;20131;-73
2023/01/12 05:31:40;;;;;;;5.95;1.38;;;;;;;6.12;99.52;98143.94;4224723;27;20063;-73
2023/01/12 05:33:41;;;;;;;9.02;2.33;;;;;;;6.10;99.62;98151.75;4224510;27;20051;-73
2023/01/12 05:35:42;;;;;;;4.72;1.95;;;;;;;6.15;99.42;98156.97;4226664;27;20498;-74
2023/01/12 05:37:42;;;;;;;9.90;2.35;;;;;;;6.15;99.56;98152.28;4224791;27;20039;-74
2023/01/12 05:39:42;;;;;;;4.65;1.50;;;;;;;6.16;99.61;98148.38;4224234;27;20663;-73
2023/01/12 05:44:02;;;;;;;9.25;1.70;;;;;;;6.17;99.55;98141.72;4227617;27;20134;-73
2023/01/12 05:46:04;;;;;;;3.33;1.30;;;;;;;6.20;99.45;98137.47;4222980;27;20051;-74
2023/01/12 05:48:04;;;;;;;3.72;1.73;;;;;;;6.23;99.01;98145.00;4225509;27;20031;-73
2023/01/12 05:50:05;;;;;;;5.63;1.58;;;;;;;6.25;98.89;98128.16;4226052;27;20380;-73
2023/01/12 05:52:06;;;;;;;6.45;1.88;;;;;;;6.24;98.72;98123.81;4224796;27;20483;-73
2023/01/12 05:54:06;;;;;;;4.80;1.85;;;;;;;6.27;98.62;98118.41;4225101;27;20038;-73
2023/01/12 05:56:14;;;;;;;2.80;1.95;;;;;;;6.23;98.72;98119.47;4187108;27;20027;-74
2023/01/12 05:58:15;;;;;;;4.43;1.60;;;;;;;6.25;98.75;98109.72;4221036;27;20185;-73
2023/01/12 06:00:16;;;;;;;6.07;1.77;;;;;;;6.27;98.46;98112.91;4226040;27;20070;-73
2023/01/12 06:02:16;;;;;;;5.13;1.77;;;;;;;6.23;98.71;98101.03;4219621;27;20290;-73
2023/01/12 06:04:17;;;;;;;5.78;2.08;;;;;;;6.23;98.34;98094.75;4224015;27;20219;-73
2023/01/12 06:06:18;;;;;;;8.25;2.55;;;;;;;6.30;98.18;98089.44;4225497;27;20360;-73
2023/01/12 06:08:19;;;;;;;3.63;1.67;;;;;;;6.27;98.04;98098.38;4223005;27;20397;-73
2023/01/12 06:10:20;;;;;;;7.20;2.53;;;;;;;6.25;98.23;98087.75;4224620;27;20030;-73
2023/01/12 06:14:39;;;;;;;8.75;2.47;;;;;;;6.17;98.25;98095.03;4221899;27;20051;-73
2023/01/12 06:16:41;;;;;;;7.60;2.58;;;;;;;6.17;98.09;98091.47;4222055;27;20039;-73
2023/01/12 06:18:41;;;;;;;3.93;1.67;;;;;;;6.17;98.24;98080.50;4225551;27;20089;-73
2023/01/12 06:20:41;;;;;;;7.15;1.98;;;;;;;6.16;98.45;98087.94;4218514;27;20035;-73
2023/01/12 06:22:43;;;;;;;5.63;2.28;;;;;;;6.15;98.57;98080.06;4218266;27;20048;-73
2023/01/12 06:24:47;;;;;;;3.03;1.63;;;;;;;6.17;98.48;98083.25;4220039;27;20286;-73
2023/01/12 06:26:48;;;;;;;6.15;1.83;;;;;;;6.24;97.54;98068.88;4221088;27;20524;-73
2023/01/12 06:28:48;;;;;;;8.30;1.92;;;;;;;6.35;96.77;98076.19;4224204;27;20035;-73
2023/01/12 06:31:00;;;;;;;3.40;1.58;;;;;;;6.36;96.88;98075.03;4217622;27;20112;-73
2023/01/12 06:33:01;;;;;;;5.22;1.92;;;;;;;6.35;97.19;98072.63;4220804;27;20697;-73
2023/01/12 06:35:02;;;;;;;4.38;2.17;;;;;;;6.34;97.09;98065.56;4217094;27;20269;-73
2023/01/12 06:37:05;;;;;;;3.72;2.20;;;;;;;6.34;97.16;98068.31;4223942;27;20050;-73
2023/01/12 06:39:06;;;;;;;5.30;2.33;;;;;;;6.27;97.53;98066.19;4218307;27;20472;-73
2023/01/12 06:42:27;;;;;;;12.48;2.47;;;;;;;6.27;97.76;98071.69;4224274;27;20115;-73
2023/01/12 06:43:32;;;;;;;6.45;1.80;;;;;;;6.26;97.90;98055.56;4222071;27;20049;-73
2023/01/12 06:45:33;;;;;;;4.78;1.65;;;;;;;6.30;97.57;98061.94;4234981;27;20046;-73
2023/01/12 06:47:33;;;;;;;3.95;1.90;;;;;;;6.34;97.19;98066.34;4234813;27;20471;-73
2023/01/12 06:49:33;;;;;;;5.10;1.40;;;;;;;6.39;96.74;98055.09;4234917;27;20050;-73
2023/01/12 06:51:34;;;;;;;5.80;1.40;;;;;;;6.36;97.07;98065.97;4229956;27;20245;-73
2023/01/12 06:53:34;;;;;;;5.63;2.03;;;;;;;6.41;96.91;98068.47;4219366;27;20066;-73
2023/01/12 06:55:35;;;;;;;4.22;1.52;;;;;;;6.40;96.99;98066.88;4219444;27;20264;-73
2023/01/12 06:57:35;;;;;;;6.47;2.30;;;;;;;6.37;97.12;98070.31;4227156;27;20062;-73
2023/01/12 06:59:35;;;;;;;5.10;2.03;;;;;;;6.33;97.17;98064.75;4234825;27;20043;-73
2023/01/12 07:01:36;;;;;;;7.40;2.63;;;;;;;6.38;97.09;98071.94;4222020;27;20104;-73
2023/01/12 07:03:36;;;;;;;6.82;2.10;;;;;;;6.42;96.37;98057.09;4219479;27;20046;-73
2023/01/12 07:05:36;;;;;;;6.57;1.80;;;;;;;6.40;96.48;98044.88;4229431;27;20035;-73
2023/01/12 07:07:37;;;;;;;6.22;1.50;;;;;;;6.34;96.66;98049.88;4218775;27;20046;-73
2023/01/12 07:09:37;;;;;;;4.60;1.40;;;;;;;6.31;97.20;98058.84;4219526;27;20310;-73
2023/01/12 07:11:37;;;;;;;7.68;1.98;;;;;;;6.35;96.41;98043.22;4226969;27;20054;-73
2023/01/12 07:13:38;;;;;;;4.20;1.48;;;;;;;6.46;95.86;98049.75;4234071;27;20035;-73
2023/01/12 07:15:38;;;;;;;5.75;1.60;;;;;;;6.48;95.44;98052.13;4228466;27;20301;-73
2023/01/12 07:17:39;;;;;;;3.60;1.35;;;;;;;6.41;95.77;98040.97;4228109;27;20042;-73
2023/01/12 07:19:39;;;;;;;3.47;1.50;;;;;;;6.35;96.35;98036.91;4235692;27;20049;-73
2023/01/12 07:21:39;;;;;;;5.35;1.73;;;;;;;6.43;95.82;98044.16;4228743;27;20043;-73
2023/01/12 07:23:43;;;;;;;3.88;1.35;;;;;;;6.39;96.00;98033.09;4219071;27;20042;-73
2023/01/12 07:25:43;;;;;;;3.70;1.55;;;;;;;6.45;96.09;98044.59;4219160;27;20498;-73
2023/01/12 07:27:56;;;;;;;3.92;1.30;;;;;;;6.46;95.80;98030.50;4219696;27;20043;-73
2023/01/12 07:29:57;;;;;;;2.70;1.33;;;;;;;6.48;95.99;98044.69;4219299;27;20040;-73
2023/01/12 07:31:57;;;;;;;5.38;1.40;;;;;;;6.46;95.81;98040.72;4219628;27;20481;-73
2023/01/12 07:33:57;;;;;;;3.85;1.40;;;;;;;6.50;96.18;98038.81;4221053;27;20378;-73
2023/01/12 07:36:00;;;;;;;4.28;1.17;;;;;;;6.49;96.35;98028.97;4221058;27;20163;-73
2023/01/12 07:38:00;;;;;;;4.75;1.20;;;;;;;6.49;96.29;98042.72;4235968;27;20054;-73
2023/01/12 07:40:01;;;;;;;2.75;1.33;;;;;;;6.57;96.17;98027.97;4225804;27;20482;-73
2023/01/12 07:44:20;;;;;;;2.42;1.42;;;;;;;6.61;95.96;98023.31;4231356;27;20035;-73
2023/01/12 07:46:20;;;;;;;3.28;1.50;;;;;;;6.63;96.02;98017.47;4232154;27;20265;-73
2023/01/12 07:48:21;;;;;;;3.63;1.25;;;;;;;6.63;96.14;98004.53;4233620;27;20136;-73
2023/01/12 07:50:23;;;;;;;4.75;1.20;;;;;;;6.67;95.93;97999.88;4223690;27;20058;-73
2023/01/12 07:52:23;;;;;;;7.18;1.63;;;;;;;6.66;96.43;98011.25;4218993;27;20035;-73
2023/01/12 07:54:24;;;;;;;2.83;1.35;;;;;;;6.61;96.47;98000.53;4218770;27;20035;-73
2023/01/12 07:56:24;;;;;;;5.03;1.50;;;;;;;6.67;95.84;97999.09;4232391;27;20463;-73
2023/01/12 07:58:26;;;;;;;3.10;1.67;;;;;;;6.65;96.30;97995.91;4224948;27;20110;-73
2023/01/12 08:00:27;;;;;;;4.70;1.90;;;;;;;6.61;96.53;98006.81;4219248;27;20028;-73
2023/01/12 08:02:27;;;;;;;3.67;1.40;;;;;;;6.58;96.82;97996.56;4218541;27;20170;-73
2023/01/12 08:04:27;;;;;;;4.55;1.40;;;;;;;6.53;97.47;98007.84;4219516;27;20036;-73
2023/01/12 08:06:28;;;;;;;11.00;1.95;;;;;;;6.55;97.69;98013.00;4219022;27;20118;-73
2023/01/12 08:08:28;;;;;;;6.97;1.60;;;;;;;6.56;98.17;98007.13;4221601;27;20052;-73
2023/01/12 08:10:29;;;;;;;4.43;1.60;;;;;;;6.51;98.48;98015.66;4219525;27;20039;-73
2023/01/12 08:12:30;;;;;;;2.40;1.30;;;;;;;6.51;99.63;98012.13;4234094;27;20641;-73
2023/01/12 08:14:35;;;;;;;2.63;1.50;;;;;;;6.54;100.00;98017.72;4235134;27;20031;-73
2023/01/12 08:16:44;;;;;;;6.90;1.60;;;;;;;6.55;100.00;98019.28;4230567;27;20039;-73
2023/01/12 08:18:56;;;;;;;9.30;1.77;;;;;;;6.56;100.00;98020.88;4229233;27;20439;-74
2023/01/12 08:21:00;;;;;;;6.82;2.10;;;;;;;6.55;100.00;98024.00;4236499;27;20100;-74
2023/01/12 08:23:13;;;;;;;1.70;1.20;;;;;;;6.57;100.00;98029.91;4235232;27;20043;-73
2023/01/12 08:25:19;;;;;;;3.67;1.50;;;;;;;6.54;100.00;98005.88;4222358;27;20039;-74
2023/01/12 08:27:24;;;;;;;5.10;1.55;;;;;;;6.52;100.00;98002.72;4237646;27;20055;-74
2023/01/12 08:29:38;;;;;;;5.72;1.08;;;;;;;6.52;100.00;98003.50;4237849;27;20077;-74
2023/01/12 08:31:40;;;;;;;1.67;1.20;;;;;;;6.55;100.00;97999.25;4220137;27;20035;-74
2023/01/12 08:33:41;;;;;;;4.25;1.23;;;;;;;6.52;100.00;97995.25;4228488;27;20097;-74
2023/01/12 08:35:45;;;;;;;4.25;1.30;;;;;;;6.51;100.00;97995.63;4223745;27;20160;-74
2023/01/12 08:37:45;;;;;;;2.90;1.35;;;;;;;6.50;100.00;97986.59;4221957;27;20085;-74
2023/01/12 08:39:46;;;;;;;3.45;1.20;;;;;;;6.46;100.00;97988.50;4222054;27;20388;-74
2023/01/12 08:41:46;;;;;;;3.60;1.33;;;;;;;6.43;100.00;97994.69;4226717;27;20370;-74
2023/01/12 08:44:02;;;;;;;3.55;1.30;;;;;;;6.40;100.00;97992.69;4223538;27;20430;-75
2023/01/12 08:46:06;;;;;;;4.82;1.10;;;;;;;6.46;100.00;97992.03;4220894;27;20321;-75
2023/01/12 08:48:07;;;;;;;3.10;1.10;;;;;;;6.50;100.00;97994.84;4222230;27;20370;-75
2023/01/12 08:50:08;;;;;;;2.55;0.93;;;;;;;6.53;100.00;97994.09;4224964;27;20023;-75
2023/01/12 08:52:08;;;;;;;1.63;1.10;;;;;;;6.47;100.00;97999.13;4234830;27;20806;-75
2023/01/12 08:54:11;;;;;;;1.98;1.00;;;;;;;6.47;100.00;97985.38;4220875;27;20027;-74
2023/01/12 08:56:11;;;;;;;;;;;;;;;6.45;100.00;97995.94;4222503;27;20032;-75
2023/01/12 08:58:11;;;;;;;2.28;0.90;;;;;;;6.44;100.00;97988.81;4223140;27;20247;-74
2023/01/12 09:00:12;;;;;;;2.58;0.88;;;;;;;6.46;100.00;97978.28;4236822;27;20027;-75
2023/01/12 09:02:14;;;;;;;6.93;1.00;;;;;;;6.45;100.00;97975.88;4237554;27;20463;-75
2023/01/12 09:04:14;;;;;;;2.40;0.80;;;;;;;6.44;100.00;97980.59;4235566;27;20731;-75
2023/01/12 09:06:28;;;;;;;2.22;0.70;;;;;;;6.40;100.00;97963.25;4236338;27;20110;-75
2023/01/12 09:08:28;;;;;;;2.10;0.80;;;;;;;6.37;100.00;97968.66;4231061;27;20062;-75
2023/01/12 09:10:29;;;;;;;2.17;0.85;;;;;;;6.40;100.00;97971.50;4221584;27;20035;-75
2023/01/12 09:12:29;;;;;;;2.05;0.93;;;;;;;6.35;100.00;97962.72;4220312;27;20494;-75
2023/01/12 09:14:30;;;;;;;3.60;1.05;;;;;;;6.31;100.00;97954.44;4232414;27;20371;-75
2023/01/12 09:16:31;;;;;;;1.27;1.00;;;;;;;6.34;100.00;97959.19;4228857;27;20085;-75
2023/01/12 09:18:32;;;;;;;1.23;0.88;;;;;;;6.36;100.00;97958.81;4235635;27;20043;-75
2023/01/12 09:20:33;;;;;;;3.03;1.08;;;;;;;6.39;100.00;97947.91;4236108;27;20518;-75
2023/01/12 09:22:33;;;;;;;2.25;1.00;;;;;;;6.42;100.00;97951.88;4226491;27;20046;-75
2023/01/12 09:24:34;;;;;;;1.25;0.75;;;;;;;6.38;100.00;97962.81;4221077;27;20405;-75
2023/01/12 09:38:20;;;;;;;4.85;1.20;;;;;;;6.43;100.00;97962.50;4225280;27;20092;-75
2023/01/12 09:40:21;;;;;;;1.10;0.85;;;;;;;6.47;100.00;97946.91;4220951;27;20784;-75
2023/01/12 09:47:31;;;;;;;3.72;1.52;;;;;;;6.57;100.00;97942.75;4236322;27;20396;-75
2023/01/12 09:49:39;;;;;;;5.30;2.05;;;;;;;6.59;100.00;97947.88;4224348;27;20130;-74
2023/01/12 09:51:50;;;;;;;3.58;1.83;;;;;;;6.59;100.00;97939.63;4220525;27;20440;-75
2023/01/12 09:53:50;;;;;;;1.75;0.93;;;;;;;6.60;100.00;97941.22;4219982;27;20039;-75
2023/01/12 09:56:02;;;;;;;2.25;0.90;;;;;;;6.63;100.00;97937.75;4220250;27;20085;-75
2023/01/12 09:58:19;;;;;;;1.98;0.98;;;;;;;6.66;100.00;97924.06;4219957;27;20116;-75
2023/01/12 10:00:20;;;;;;;2.90;1.80;;;;;;;6.67;100.00;97924.88;4219873;27;20060;-74
2023/01/12 10:02:21;;;;;;;2.28;0.90;;;;;;;6.68;100.00;97923.69;4220275;27;20031;-74
2023/01/12 10:04:21;;;;;;;1.60;1.00;;;;;;;6.70;100.00;97924.13;4219780;27;20044;-74
2023/01/12 10:06:22;;;;;;;1.63;1.00;;;;;;;6.72;100.00;97936.38;4220489;27;20291;-74
2023/01/12 10:08:38;;;;;;;1.20;1.05;;;;;;;6.73;100.00;97937.94;4234302;27;20039;-75
2023/01/12 10:10:46;;;;;;;1.73;1.17;;;;;;;6.76;100.00;97939.97;4221255;27;20039;-74
2023/01/12 10:12:53;;;;;;;4.13;1.08;;;;;;;6.81;100.00;97932.59;4218132;27;20040;-75
2023/01/12 10:14:56;;;;;;;1.27;1.00;;;;;;;6.81;100.00;97927.88;4220548;27;20121;-75
2023/01/12 10:17:18;;;;;;;2.47;0.93;;;;;;;6.82;100.00;97934.97;4220468;27;20050;-75
2023/01/12 10:19:49;;;;;;;1.27;0.90;;;;;;;6.78;100.00;97936.03;4219309;27;20071;-75
2023/01/12 10:21:52;;;;;;;0.80;0.80;;;;;;;6.79;100.00;97929.41;4205499;28;20498;-75
2023/01/12 10:23:53;;;;;;;1.10;0.77;;;;;;;6.83;100.00;97933.00;4232032;27;20253;-75
2023/01/12 10:26:10;;;;;;;0.93;0.80;;;;;;;6.80;100.00;97907.03;4218839;27;20046;-75
2023/01/12 10:28:25;;;;;;;0.70;0.70;;;;;;;6.84;100.00;97916.13;4219830;27;20506;-75
2023/01/12 10:30:38;;;;;;;1.33;0.60;;;;;;;6.86;100.00;97924.00;4220092;27;20043;-75